Ayden, North Carolina
Current Conditions -  °F | °C
As of 7:30 AM on Tuesday 21 Oct 2014 (Local Time) from KPGV Reporting Station
Light Rain Light Rain  
Wind Chill: 54°   Ceiling: 200
Heat Index: 54°   Visibility: 0.25mi
Dew Point: 54°   Wind: 0mph
Humidity: 100%   Direction: NA
Pressure: 29.95"   Gusts: NA
Location:  35.47°N, 77.42°W
Report Text: KPGV 211130Z AUTO 00000KT 1/4SM -RA VV002 12/12 A2995 RMK AO2
Loading
Personal Weather Stations






























Interactive Weather Map
Tropical Storm Tracking
New forecast layout! Learn more

10-Day Weather Forecast

Advertisements
Track Severe Weather on mobile